INFORMACIÓN METAR y TAF
METAR FOR LEAL
ADDS - METARS form results

(2005 UTC 26 February 2020)
Data provider http://aviationweather.gov/metar/data/
 
METAR text: LEAL 262000Z VRB01KT CAVOK 14/10 Q1019 NOSIG
Conditions at: LEAL (ALICANTE/EL ALTE, ES) observed 2000 UTC 26 February 2020
Temperature: 14.0°C (57°F)
Dewpoint: 10.0°C (50°F) [RH = 77%]
Pressure (altimeter): 30.09 inches Hg (1019.0 mb)
Winds: variable direction winds at 1 MPH (1 knots; 0.5 m/s)
Visibility: 6 or more miles (10+ km)
Ceiling: ceiling and visibility are OK
Clouds: unknown
Weather: no significant weather observed at this time

METAR text: LEAL 261930Z 07005KT CAVOK 14/10 Q1019 NOSIG
Conditions at: LEAL (ALICANTE/EL ALTE, ES) observed 1930 UTC 26 February 2020
Temperature: 14.0°C (57°F)
Dewpoint: 10.0°C (50°F) [RH = 77%]
Pressure (altimeter): 30.09 inches Hg (1019.0 mb)
Winds: from the ENE (70 degrees) at 6 MPH (5 knots; 2.6 m/s)
Visibility: 6 or more miles (10+ km)
Ceiling: ceiling and visibility are OK
Clouds: unknown
Weather: no significant weather observed at this time

Forecast for: LEAL (ALICANTE/EL ALTE, ES)
Text: TAF LEAL 261700Z 2618/2718 30017KT CAVOK TX24/2712Z TN07/2706Z
Forecast period: 1800 UTC 26 February 2020 to 1800 UTC 27 February 2020
Forecast type: FROM: standard forecast or significant change
Winds: from the WNW (300 degrees) at 20 MPH (17 knots; 8.7 m/s)
Visibility: 6 or more miles 10+ km)
Ceiling: unknown
Clouds: missing
Weather: no significant weather forecast for this period
Text: BECMG 2618/2619 35007KT
Forecast period: 1800 UTC 26 February 2020 to 1800 UTC 27 February 2020
Forecast type: BECOMING: Conditions expected to become as follows by 1900 UTC 26 February 2020
Winds: from the N (350 degrees) at 8 MPH (7 knots; 3.6 m/s)
Visibility: 6 or more miles 10+ km)
Ceiling: unknown
Clouds: missing
Weather: no significant weather forecast for this period

 MAPA DE AEROPUERTO

 INFORMACIÓN DE PISTA
Pista 10 Longitud 9842 ft Ancho 148 ft
Elevación 142 ft Umbral desplazado 0 ft Rumbo de pista 100
Pista 28 Longitud 9842 ft Ancho 148 ft
Elevación 44 ft Umbral desplazado 0 ft Rumbo de pista 280

 FRECUANCIAS DEL AEROPUERTO
Tipo APP Nombre APP Frecuencia 118.8 MHZ
Tipo ATIS Nombre ATIS Frecuencia 113.8 MHZ
Tipo GND Nombre GND Frecuencia 121.7 MHZ
Tipo TWR Nombre TWR Frecuencia 118.15 MHZ

 RADIO AYUDAS DEL AEROPUERTO
Tipo VOR-DME Nombre Alicante Frecuencia 113800 KHZ
Tipo VOR-DME Nombre Alicante Frecuencia 114650 KHZ